Time;durP1;ratioP1;P1;durP2;ratioP2;P2;SDS_P1;SDS_P2;PMS_P1;PMS_P2;Temp;Humidity;BMP_temperature;BMP_pressure;BME280_temperature;BME280_humidity;BME280_pressure;Samples;Min_cycle;Max_cycle;Signal;HPM_P1;HPM_P2
2023/03/20 00:01:45;;;;;;;19.83;12.93;;;;;;;8.77;92.14;99869.66;5110315;28;20190;-52
2023/03/20 00:04:41;;;;;;;20.47;13.83;;;;;;;8.78;92.47;99862.75;5112664;28;20198;-51
2023/03/20 00:07:36;;;;;;;18.83;12.53;;;;;;;8.74;92.52;99854.16;5112867;28;20190;-55
2023/03/20 00:10:31;;;;;;;21.33;14.03;;;;;;;8.67;93.91;99847.38;5104747;28;20668;-55
2023/03/20 00:20:10;;;;;;;19.17;13.80;;;;;;;8.73;92.64;99840.38;5091414;28;20200;-53
2023/03/20 00:26:06;;;;;;;20.37;15.27;;;;;;;8.88;92.10;99820.28;5089245;28;20276;-52
2023/03/20 00:29:05;;;;;;;21.67;14.13;;;;;;;8.90;91.60;99831.47;5091601;28;20590;-54
2023/03/20 00:31:57;;;;;;;23.30;15.30;;;;;;;8.90;91.68;99829.75;5090799;28;20496;-55
2023/03/20 00:40:54;;;;;;;21.17;15.07;;;;;;;8.85;90.61;99812.56;5090856;28;20195;-52
2023/03/20 00:43:51;;;;;;;21.33;14.00;;;;;;;8.91;91.05;99830.59;5091714;28;20946;-52
2023/03/20 00:47:06;;;;;;;21.13;14.87;;;;;;;8.83;91.85;99816.91;5091399;28;20191;-51
2023/03/20 00:53:08;;;;;;;20.23;14.17;;;;;;;8.80;92.36;99823.03;5089868;28;20305;-55
2023/03/20 00:59:21;;;;;;;21.17;13.80;;;;;;;8.51;93.63;99814.84;5090789;28;20203;-53
2023/03/20 01:08:28;;;;;;;18.83;14.70;;;;;;;8.36;95.96;99815.94;5091313;28;20630;-55
2023/03/20 01:14:07;;;;;;;23.00;14.20;;;;;;;8.34;97.72;99809.97;5090981;28;20219;-55
2023/03/20 01:20:42;;;;;;;25.43;14.20;;;;;;;8.38;99.64;99804.69;5088985;28;20199;-55
2023/03/20 01:27:04;;;;;;;23.37;13.40;;;;;;;8.35;99.90;99796.97;5110321;28;20221;-52
2023/03/20 01:30:10;;;;;;;22.23;13.40;;;;;;;8.32;99.88;99793.59;5111162;28;20243;-54
2023/03/20 01:33:16;;;;;;;25.93;13.77;;;;;;;8.36;100.00;99788.34;5110959;28;20210;-54
2023/03/20 01:39:09;;;;;;;25.93;15.20;;;;;;;8.36;99.84;99798.69;5108984;28;20198;-51
2023/03/20 01:42:00;;;;;;;21.07;14.70;;;;;;;8.41;98.48;99797.78;5110554;28;20202;-51
2023/03/20 01:45:09;;;;;;;21.27;13.73;;;;;;;8.38;98.48;99791.75;5110428;28;20224;-52
2023/03/20 01:48:24;;;;;;;;;;;;;;;;;;;;;
2023/03/20 01:51:35;;;;;;;21.37;14.00;;;;;;;8.23;100.00;99783.38;5106796;28;20206;-54
2023/03/20 02:03:49;;;;;;;21.57;14.73;;;;;;;8.05;100.00;99783.63;5107422;28;20259;-53
2023/03/20 02:06:55;;;;;;;27.17;16.00;;;;;;;7.99;100.00;99782.84;5110551;28;20209;-54
2023/03/20 02:12:30;;;;;;;25.60;17.00;;;;;;;7.72;100.00;99792.69;5107951;28;20567;-52
2023/03/20 02:15:28;;;;;;;28.97;17.77;;;;;;;7.62;100.00;99789.38;5109885;28;20230;-52
2023/03/20 02:22:30;;;;;;;26.33;17.13;;;;;;;7.50;100.00;99784.34;5108175;28;20285;-54
2023/03/20 02:26:00;;;;;;;26.27;17.77;;;;;;;7.48;100.00;99780.94;5110301;28;20255;-53
2023/03/20 02:29:21;;;;;;;29.00;18.10;;;;;;;7.52;100.00;99778.31;5084523;28;20198;-54
2023/03/20 02:32:34;;;;;;;28.13;17.67;;;;;;;7.49;100.00;99772.31;5110001;28;20199;-54
2023/03/20 02:35:43;;;;;;;29.07;17.83;;;;;;;7.23;100.00;99780.34;5082427;28;20226;-52
2023/03/20 02:39:05;;;;;;;26.17;16.83;;;;;;;7.11;100.00;99776.16;5108539;28;20191;-55
2023/03/20 02:48:55;;;;;;;23.37;16.17;;;;;;;7.03;97.82;99743.59;5108559;28;20211;-53
2023/03/20 02:51:55;;;;;;;19.00;14.47;;;;;;;6.87;99.03;99763.53;5109061;28;20226;-52
2023/03/20 02:55:04;;;;;;;24.50;16.17;;;;;;;6.85;99.38;99762.69;5109721;28;20222;-51
2023/03/20 02:58:04;;;;;;;23.90;15.93;;;;;;;6.96;98.01;99771.19;5110059;28;20286;-51
2023/03/20 03:03:59;;;;;;;26.23;15.93;;;;;;;6.85;98.61;99770.44;5108102;28;20205;-51
2023/03/20 03:07:03;;;;;;;22.13;15.63;;;;;;;6.71;98.71;99764.56;5108732;28;20206;-52
2023/03/20 03:09:57;;;;;;;26.43;16.67;;;;;;;6.65;100.00;99764.63;5109581;28;20241;-52
2023/03/20 03:13:17;;;;;;;22.10;16.33;;;;;;;6.65;99.90;99767.19;5108467;28;20194;-52
2023/03/20 03:16:10;;;;;;;22.33;15.40;;;;;;;6.60;100.00;99771.53;5108971;28;20693;-54
2023/03/20 03:19:00;;;;;;;23.10;15.63;;;;;;;6.56;100.00;99766.38;5109653;28;20198;-52
2023/03/20 03:22:10;;;;;;;26.50;16.13;;;;;;;6.50;100.00;99757.88;5108979;28;20608;-52
2023/03/20 03:24:57;;;;;;;23.93;16.40;;;;;;;6.56;100.00;99758.66;5099497;28;20675;-52
2023/03/20 03:27:56;;;;;;;21.07;15.40;;;;;;;6.54;99.60;99760.41;5088943;28;20199;-51
2023/03/20 03:31:12;;;;;;;24.07;15.87;;;;;;;6.44;100.00;99771.66;5088438;28;20202;-52
2023/03/20 03:40:18;;;;;;;22.93;15.73;;;;;;;6.11;100.00;99761.59;5086388;28;20689;-55
2023/03/20 03:43:08;;;;;;;22.57;16.00;;;;;;;6.07;100.00;99757.34;5088425;28;20666;-54
2023/03/20 03:54:59;;;;;;;30.13;17.63;;;;;;;6.23;100.00;99761.50;5090166;28;20218;-52
2023/03/20 03:57:58;;;;;;;28.10;16.50;;;;;;;6.10;100.00;99757.28;5109279;28;20273;-52
2023/03/20 04:00:47;;;;;;;28.03;16.80;;;;;;;6.07;100.00;99770.22;5113043;28;20284;-52
2023/03/20 04:03:54;;;;;;;28.13;16.67;;;;;;;5.97;100.00;99766.00;5110422;28;20209;-52
2023/03/20 04:06:26;;;;;;;26.40;17.63;;;;;;;5.90;100.00;99766.88;5112829;28;20198;-51
2023/03/20 04:09:04;;;;;;;27.80;18.10;;;;;;;5.80;100.00;99779.78;5112571;28;20195;-52
2023/03/20 04:11:36;;;;;;;31.80;17.93;;;;;;;5.75;100.00;99766.09;5112256;28;20197;-52
2023/03/20 04:14:07;;;;;;;29.40;19.00;;;;;;;5.67;100.00;99766.97;5112814;28;20218;-52
2023/03/20 04:16:42;;;;;;;32.70;19.87;;;;;;;5.66;100.00;99768.69;5112449;28;20198;-52
2023/03/20 04:19:20;;;;;;;29.50;18.80;;;;;;;5.64;100.00;99774.75;5112735;28;20280;-54
2023/03/20 04:22:05;;;;;;;35.43;19.87;;;;;;;5.57;100.00;99765.31;5112317;28;20281;-54
2023/03/20 04:24:38;;;;;;;24.27;16.57;;;;;;;5.62;100.00;99771.31;5112349;28;20191;-54
2023/03/20 04:27:16;;;;;;;23.57;14.73;;;;;;;5.63;100.00;99771.31;5111208;28;20209;-52
2023/03/20 04:30:14;;;;;;;21.17;13.63;;;;;;;5.68;100.00;99768.69;5112366;28;20558;-52
2023/03/20 04:33:03;;;;;;;23.00;12.80;;;;;;;5.55;100.00;99765.31;5112044;28;20199;-52
2023/03/20 04:35:44;;;;;;;21.73;13.53;;;;;;;5.44;100.00;99761.94;5101862;28;20222;-54
2023/03/20 04:38:42;;;;;;;17.47;12.37;;;;;;;5.44;100.00;99767.06;5097041;28;20203;-52
2023/03/20 04:41:51;;;;;;;20.50;13.50;;;;;;;5.43;100.00;99766.22;5092040;28;20287;-52
2023/03/20 04:44:27;;;;;;;19.63;12.33;;;;;;;5.57;100.00;99768.75;5093151;28;20194;-53
2023/03/20 04:47:13;;;;;;;19.37;12.37;;;;;;;5.67;100.00;99775.56;5105272;28;20195;-53
2023/03/20 04:50:16;;;;;;;31.97;13.20;;;;;;;5.67;100.00;99770.41;5098004;28;20230;-55
2023/03/20 04:53:01;;;;;;;22.83;13.23;;;;;;;5.81;100.00;99773.78;5089679;28;20223;-55
2023/03/20 04:55:35;;;;;;;20.53;12.50;;;;;;;5.97;100.00;99772.00;5090999;28;20660;-52
2023/03/20 04:58:07;;;;;;;24.20;13.77;;;;;;;6.12;99.03;99773.59;5090516;28;20210;-54
2023/03/20 05:00:59;;;;;;;20.60;13.23;;;;;;;6.25;97.73;99785.56;5091267;28;20230;-54
2023/03/20 05:03:47;;;;;;;22.67;13.50;;;;;;;6.21;97.71;99783.84;5099285;28;20226;-54
2023/03/20 05:06:26;;;;;;;21.30;13.50;;;;;;;6.24;97.65;99783.84;5097566;28;20218;-57
2023/03/20 05:08:55;;;;;;;20.87;13.53;;;;;;;6.39;97.19;99781.16;5106548;28;20657;-50
2023/03/20 05:11:29;;;;;;;20.90;13.63;;;;;;;6.64;95.14;99783.53;5095002;28;20302;-53
2023/03/20 05:14:05;;;;;;;23.60;14.13;;;;;;;6.80;93.59;99785.09;5099237;28;20296;-52
2023/03/20 05:16:54;;;;;;;24.07;14.40;;;;;;;7.00;92.39;99783.16;5094285;28;20306;-54
2023/03/20 05:19:38;;;;;;;23.13;13.70;;;;;;;7.21;91.29;99785.56;5088985;28;20668;-55
2023/03/20 05:22:15;;;;;;;22.70;14.37;;;;;;;7.49;88.88;99783.50;5088721;28;20215;-51
2023/03/20 05:24:57;;;;;;;30.20;14.40;;;;;;;7.68;86.80;99789.28;5088106;28;20217;-52
2023/03/20 05:27:37;;;;;;;26.17;14.70;;;;;;;7.86;85.60;99778.72;5086918;28;20227;-52
2023/03/20 05:30:36;;;;;;;25.60;14.70;;;;;;;8.77;81.78;99784.25;5087914;28;20306;-51
2023/03/20 05:33:22;;;;;;;22.17;14.13;;;;;;;10.34;73.21;99788.84;5087556;28;20229;-52
2023/03/20 05:36:16;;;;;;;25.67;15.80;;;;;;;12.00;64.52;99788.69;5090229;28;20451;-53
2023/03/20 05:38:55;;;;;;;19.73;14.87;;;;;;;13.17;57.80;99793.59;5089786;28;20219;-53
2023/03/20 05:41:31;;;;;;;19.77;14.73;;;;;;;14.20;53.76;99804.56;5088777;28;20272;-53
2023/03/20 05:44:26;;;;;;;21.30;14.80;;;;;;;15.41;50.44;99799.50;5089863;28;20347;-52
2023/03/20 05:47:19;;;;;;;25.03;15.00;;;;;;;16.45;46.72;99810.47;5105751;28;20550;-52
2023/03/20 05:50:20;;;;;;;26.40;15.77;;;;;;;17.50;44.28;99803.38;5108492;28;20199;-53
2023/03/20 05:53:19;;;;;;;24.97;15.60;;;;;;;18.67;41.57;99807.47;5109605;28;20230;-54
2023/03/20 05:56:14;;;;;;;25.67;16.27;;;;;;;18.39;41.03;99807.34;5108921;28;20701;-52
2023/03/20 05:59:21;;;;;;;20.02;15.88;;;;;;;19.50;39.17;99806.97;5110516;28;20202;-55
2023/03/20 06:02:30;;;;;;;20.50;14.93;;;;;;;19.71;38.29;99801.31;5110990;28;20647;-54
2023/03/20 06:05:12;;;;;;;19.98;16.40;;;;;;;19.72;38.35;99803.00;5109336;28;20187;-55
2023/03/20 06:07:45;;;;;;;24.50;15.73;;;;;;;20.56;37.61;99807.28;5109286;28;20666;-54
2023/03/20 06:10:19;;;;;;;24.02;17.45;;;;;;;21.06;36.87;99811.00;5097162;28;20191;-55
2023/03/20 06:13:07;;;;;;;26.63;18.00;;;;;;;21.59;35.38;99802.06;5098040;28;20191;-55
2023/03/20 06:15:44;;;;;;;28.17;18.55;;;;;;;21.25;36.05;99802.72;5096582;28;20222;-55
2023/03/20 06:21:26;;;;;;;36.08;21.23;;;;;;;21.32;35.64;99811.91;5099551;28;20662;-54
2023/03/20 06:27:40;;;;;;;44.33;22.35;;;;;;;22.36;33.87;99808.06;5107295;28;20202;-54
2023/03/20 06:33:52;;;;;;;50.22;22.90;;;;;;;22.27;33.66;99790.22;5085907;28;20679;-55
2023/03/20 06:42:54;;;;;;;38.55;25.52;;;;;;;23.58;32.13;99805.06;5088447;28;20203;-53
2023/03/20 06:45:41;;;;;;;45.10;26.85;;;;;;;23.56;32.08;99801.69;5089083;28;20203;-54
2023/03/20 06:48:53;;;;;;;52.47;29.80;;;;;;;23.49;32.06;99797.78;5086470;28;20203;-55
2023/03/20 06:55:12;;;;;;;40.45;26.90;;;;;;;24.12;31.13;99801.66;5087403;28;20795;-55
2023/03/20 07:01:11;;;;;;;50.65;32.15;;;;;;;24.04;31.23;99802.25;5090434;28;20193;-54
2023/03/20 07:04:08;;;;;;;54.85;32.78;;;;;;;23.51;31.82;99791.44;5089143;28;20198;-55
2023/03/20 07:07:15;;;;;;;43.72;29.02;;;;;;;24.18;30.99;99791.38;5082693;28;20191;-55
2023/03/20 07:10:03;;;;;;;46.38;29.58;;;;;;;24.17;30.99;99794.16;5088521;28;20623;-56
2023/03/20 07:13:09;;;;;;;44.30;28.63;;;;;;;23.55;31.87;99786.75;5088866;28;20225;-54
2023/03/20 07:16:07;;;;;;;39.67;28.90;;;;;;;23.80;31.26;99794.47;5096701;28;20222;-54
2023/03/20 07:18:59;;;;;;;43.38;27.40;;;;;;;23.98;31.44;99800.09;5093802;28;20205;-54
2023/03/20 07:25:05;;;;;;;39.08;26.25;;;;;;;24.40;31.03;99798.47;5085301;28;20688;-53
2023/03/20 07:27:52;;;;;;;34.70;23.10;;;;;;;24.86;30.84;99790.22;5088726;28;20263;-56
2023/03/20 07:30:50;;;;;;;33.20;22.02;;;;;;;25.82;29.70;99795.31;5088518;28;20235;-54
2023/03/20 07:33:52;;;;;;;27.35;21.50;;;;;;;25.34;30.02;99789.72;5090406;28;20207;-53
2023/03/20 07:36:46;;;;;;;26.63;20.75;;;;;;;25.41;30.19;99785.56;5093266;28;20296;-54
2023/03/20 07:39:53;;;;;;;29.33;20.45;;;;;;;25.71;29.52;99790.09;5092041;28;20195;-55
2023/03/20 07:43:06;;;;;;;36.67;20.85;;;;;;;24.28;31.45;99772.94;5108927;28;20581;-54
2023/03/20 07:46:08;;;;;;;39.25;24.85;;;;;;;24.10;31.76;99769.94;5113043;28;20285;-54
2023/03/20 07:49:04;;;;;;;32.05;24.00;;;;;;;24.60;31.43;99773.78;5112976;28;20195;-56
2023/03/20 07:51:53;;;;;;;39.70;21.70;;;;;;;24.55;31.21;99776.00;5109316;28;20610;-56
2023/03/20 07:58:08;;;;;;;32.22;22.48;;;;;;;24.36;31.72;99777.66;5092547;28;20240;-56
2023/03/20 08:00:51;;;;;;;27.77;22.13;;;;;;;24.00;32.01;99779.63;5089553;28;20199;-55
2023/03/20 08:03:32;;;;;;;36.63;22.13;;;;;;;23.59;32.68;99764.31;5089419;28;20699;-56
2023/03/20 08:06:06;;;;;;;34.40;22.80;;;;;;;22.48;34.26;99766.66;5097070;28;20226;-54
2023/03/20 08:09:07;;;;;;;34.20;23.95;;;;;;;21.55;35.40;99766.28;5110239;28;20653;-54
2023/03/20 08:12:01;;;;;;;34.58;23.23;;;;;;;20.26;37.79;99754.72;5110644;28;20629;-54
2023/03/20 08:18:06;;;;;;;35.33;23.23;;;;;;;18.89;41.20;99748.38;5111708;28;20252;-54
2023/03/20 08:24:26;;;;;;;38.70;21.60;;;;;;;17.43;45.03;99742.50;5111129;28;20625;-54
2023/03/20 08:27:18;;;;;;;37.13;22.38;;;;;;;17.09;45.63;99744.34;5111253;28;20281;-53
2023/03/20 08:30:22;;;;;;;34.55;21.30;;;;;;;16.47;47.52;99737.88;5112088;28;20195;-53
2023/03/20 08:32:57;;;;;;;38.33;22.60;;;;;;;16.24;48.34;99741.63;5111721;28;20194;-53
2023/03/20 08:35:28;;;;;;;39.53;22.83;;;;;;;16.23;48.99;99742.53;5103358;28;20218;-53
2023/03/20 08:38:11;;;;;;;39.30;25.57;;;;;;;16.27;48.65;99729.19;5100349;28;20203;-55
2023/03/20 08:40:53;;;;;;;37.57;21.73;;;;;;;16.22;49.54;99732.97;5100662;28;20209;-53
2023/03/20 08:43:28;;;;;;;39.97;21.43;;;;;;;16.14;50.03;99740.38;5100857;28;20199;-55
2023/03/20 08:46:07;;;;;;;31.73;19.40;;;;;;;16.00;49.93;99729.69;5099051;28;20347;-53
2023/03/20 08:48:36;;;;;;;30.73;19.70;;;;;;;15.81;49.92;99724.47;5100084;28;20278;-55
2023/03/20 08:51:10;;;;;;;34.73;19.83;;;;;;;15.77;50.13;99729.00;5099576;28;20586;-54
2023/03/20 08:54:02;;;;;;;28.07;18.90;;;;;;;16.06;49.92;99718.91;5098157;28;20589;-53
2023/03/20 08:56:41;;;;;;;30.27;18.57;;;;;;;16.04;49.66;99712.91;5098744;28;20262;-54
2023/03/20 08:59:19;;;;;;;25.30;18.93;;;;;;;16.19;49.51;99720.03;5098067;28;20706;-54
2023/03/20 09:02:03;;;;;;;28.90;18.80;;;;;;;16.23;50.23;99719.81;5101791;28;20260;-56
2023/03/20 09:04:31;;;;;;;21.13;16.93;;;;;;;16.26;50.55;99710.94;5100908;28;20279;-55
2023/03/20 09:07:22;;;;;;;27.00;17.67;;;;;;;16.34;50.20;99704.41;5098025;28;20219;-55
2023/03/20 09:10:15;;;;;;;39.10;17.47;;;;;;;16.61;49.49;99706.56;5098055;28;20315;-53
2023/03/20 09:13:31;;;;;;;28.13;16.97;;;;;;;16.44;49.88;99702.19;5107883;28;20606;-53
2023/03/20 09:16:43;;;;;;;22.63;16.30;;;;;;;16.42;49.83;99708.41;5090570;28;20707;-53
2023/03/20 09:19:24;;;;;;;22.17;15.33;;;;;;;16.23;50.18;99708.50;5090733;28;20631;-54
2023/03/20 09:24:59;;;;;;;23.87;16.93;;;;;;;16.28;49.98;99698.63;5089053;28;20742;-53
2023/03/20 09:27:36;;;;;;;27.97;15.73;;;;;;;16.30;49.33;99702.00;5089385;28;20222;-54
2023/03/20 09:33:52;;;;;;;31.67;16.60;;;;;;;16.38;49.22;99689.38;5093269;28;20221;-53
2023/03/20 09:37:03;;;;;;;28.33;16.53;;;;;;;16.44;48.21;99696.09;5090772;28;20662;-53
2023/03/20 09:39:52;;;;;;;18.40;13.97;;;;;;;16.40;47.31;99687.53;5090480;28;20199;-54
2023/03/20 09:42:47;;;;;;;20.57;13.73;;;;;;;16.30;47.65;99673.19;5089793;28;20203;-55
2023/03/20 09:45:46;;;;;;;21.70;14.37;;;;;;;16.65;47.50;99679.31;5088430;28;20191;-56
2023/03/20 09:49:02;;;;;;;16.70;14.00;;;;;;;16.72;48.29;99669.38;5089597;28;20651;-55
2023/03/20 09:52:13;;;;;;;;;;;;;;;;;;;;;
2023/03/20 09:55:02;;;;;;;19.97;14.90;;;;;;;16.73;47.80;99658.81;5041968;28;20621;-56
2023/03/20 09:57:50;;;;;;;17.93;14.13;;;;;;;16.66;48.50;99658.28;5050061;28;20691;-56
2023/03/20 10:01:09;;;;;;;;;;;;;;;;;;;;;
2023/03/20 10:13:38;;;;;;;20.93;14.67;;;;;;;16.94;48.97;99635.84;5069584;28;20207;-55
2023/03/20 10:23:14;;;;;;;19.13;13.80;;;;;;;16.99;49.12;99618.13;5069049;28;20196;-56
2023/03/20 10:26:13;;;;;;;17.97;13.17;;;;;;;17.15;49.24;99613.75;5069654;28;20620;-52
2023/03/20 10:29:18;;;;;;;13.93;12.30;;;;;;;17.05;48.85;99612.53;5069001;28;20196;-52
2023/03/20 10:32:13;;;;;;;21.57;14.33;;;;;;;17.32;48.90;99615.44;5067571;28;20599;-53
2023/03/20 10:35:29;;;;;;;18.27;14.40;;;;;;;17.38;49.36;99602.81;5068532;28;20303;-53
2023/03/20 10:38:22;;;;;;;18.97;16.00;;;;;;;17.39;49.70;99601.06;5065354;28;20212;-53
2023/03/20 10:41:28;;;;;;;16.23;12.85;;;;;;;17.66;48.83;99596.94;5068752;28;20608;-52
2023/03/20 10:44:17;;;;;;;18.70;11.77;;;;;;;17.69;48.42;99586.25;5069067;28;20611;-52
2023/03/20 10:47:16;;;;;;;15.70;13.10;;;;;;;17.89;48.10;99579.88;5066999;28;20303;-51
2023/03/20 10:53:19;;;;;;;13.43;10.70;;;;;;;18.01;47.50;99560.78;5074824;28;20230;-52
2023/03/20 10:59:41;;;;;;;;;;;;;;;;;;;;;
2023/03/20 11:12:29;;;;;;;32.85;20.23;;;;;;;18.28;43.43;99539.91;5112717;28;20666;-55
2023/03/20 11:15:35;;;;;;;;;;;;;;;;;;;;;
2023/03/20 11:21:29;;;;;;;13.20;9.95;;;;;;;18.32;43.88;99511.66;5111823;28;20206;-56
2023/03/20 11:24:18;;;;;;;9.95;8.95;;;;;;;18.35;43.36;99514.09;5104319;28;20548;-55
2023/03/20 11:27:03;;;;;;;10.02;7.80;;;;;;;18.38;42.73;99513.94;5092649;28;20744;-55
2023/03/20 11:29:58;;;;;;;8.60;7.80;;;;;;;18.46;42.63;99509.03;5093262;28;20203;-56
2023/03/20 11:33:09;;;;;;;9.77;7.22;;;;;;;18.45;42.27;99494.22;5093057;28;20199;-55
2023/03/20 11:36:06;;;;;;;8.15;7.45;;;;;;;18.43;42.47;99489.03;5091732;28;20285;-57
2023/03/20 11:38:44;;;;;;;7.70;6.97;;;;;;;18.39;42.17;99479.66;5095015;28;20612;-56
2023/03/20 11:41:33;;;;;;;9.75;7.30;;;;;;;18.38;42.07;99477.13;5102689;28;20205;-56
2023/03/20 11:44:25;;;;;;;9.70;7.65;;;;;;;18.45;42.50;99478.44;5102702;28;20190;-53
2023/03/20 11:47:13;;;;;;;7.38;6.78;;;;;;;18.36;42.15;99468.50;5099728;28;20206;-51
2023/03/20 11:50:03;;;;;;;10.45;7.32;;;;;;;18.34;42.93;99459.84;5102254;28;20195;-53
2023/03/20 11:52:51;;;;;;;12.60;7.88;;;;;;;18.45;42.88;99471.41;5099241;28;20869;-53
2023/03/20 11:55:35;;;;;;;9.38;7.28;;;;;;;18.29;42.54;99454.88;5102940;28;20673;-54
2023/03/20 11:58:18;;;;;;;8.13;7.28;;;;;;;18.46;43.35;99454.69;5102361;28;20207;-53
2023/03/20 12:00:55;;;;;;;11.15;7.25;;;;;;;18.62;43.14;99448.53;5100705;28;20700;-54
2023/03/20 12:03:54;;;;;;;9.23;7.80;;;;;;;18.67;43.36;99447.28;5099483;28;20627;-55
2023/03/20 12:06:51;;;;;;;11.98;7.38;;;;;;;18.79;43.14;99446.50;5102263;28;20191;-56
2023/03/20 12:09:48;;;;;;;28.13;8.27;;;;;;;18.70;43.65;99431.31;5102292;28;20654;-56
2023/03/20 12:12:50;;;;;;;11.45;7.97;;;;;;;18.65;43.59;99428.13;5102008;28;20191;-55
2023/03/20 12:15:30;;;;;;;12.73;7.40;;;;;;;18.64;43.69;99426.44;5101995;28;20653;-55
2023/03/20 12:18:06;;;;;;;8.23;7.03;;;;;;;18.70;42.83;99430.47;5101116;28;20218;-53
2023/03/20 12:20:47;;;;;;;9.13;6.65;;;;;;;18.83;42.86;99426.97;5101164;28;20249;-53
2023/03/20 12:23:36;;;;;;;6.95;5.97;;;;;;;18.80;42.01;99426.31;5101322;28;20190;-54
2023/03/20 12:26:22;;;;;;;7.35;6.30;;;;;;;18.97;40.83;99430.47;5100639;28;20231;-53
2023/03/20 12:29:16;;;;;;;6.13;5.63;;;;;;;19.02;42.11;99425.78;5101409;28;20195;-54
2023/03/20 12:31:50;;;;;;;6.72;5.75;;;;;;;18.96;42.41;99426.19;5100244;28;20195;-55
2023/03/20 12:34:31;;;;;;;8.25;6.72;;;;;;;19.00;42.50;99419.75;5097408;28;20187;-56
2023/03/20 12:37:17;;;;;;;9.45;6.57;;;;;;;19.15;41.17;99417.00;5099609;28;20787;-56
2023/03/20 12:40:04;;;;;;;8.88;7.05;;;;;;;19.23;39.85;99414.69;5101730;28;20287;-55
2023/03/20 12:42:54;;;;;;;5.68;5.18;;;;;;;19.27;39.28;99410.06;5101286;28;20576;-56
2023/03/20 12:45:44;;;;;;;6.07;5.50;;;;;;;19.32;39.25;99402.69;5100321;28;20227;-55
2023/03/20 12:48:43;;;;;;;7.82;6.10;;;;;;;19.34;40.91;99402.59;5101481;28;20192;-55
2023/03/20 12:51:33;;;;;;;6.43;5.93;;;;;;;19.41;42.08;99402.09;5099949;28;20667;-56
2023/03/20 12:54:28;;;;;;;7.80;6.75;;;;;;;19.40;42.71;99399.59;5098697;28;20794;-54
2023/03/20 12:57:36;;;;;;;9.23;6.28;;;;;;;19.54;41.79;99391.63;5101020;28;20296;-54
2023/03/20 13:00:30;;;;;;;7.70;6.72;;;;;;;19.62;41.99;99381.44;5098357;28;20201;-53
2023/03/20 13:03:31;;;;;;;7.90;6.55;;;;;;;19.79;42.14;99377.63;5098910;28;20207;-53
2023/03/20 13:06:23;;;;;;;8.95;6.45;;;;;;;19.96;41.40;99384.38;5097216;28;20747;-52
2023/03/20 13:09:33;;;;;;;8.63;6.18;;;;;;;20.08;39.65;99376.47;5100838;28;20196;-53
2023/03/20 13:12:28;;;;;;;7.85;5.93;;;;;;;20.16;38.75;99375.91;5099337;28;20256;-53
2023/03/20 13:15:26;;;;;;;5.97;5.40;;;;;;;20.07;38.54;99368.66;5100716;28;20195;-54
2023/03/20 13:18:16;;;;;;;5.97;5.45;;;;;;;20.01;39.23;99369.06;5100863;28;20325;-56
2023/03/20 13:21:04;;;;;;;6.18;5.57;;;;;;;20.14;39.21;99370.75;5098008;28;20195;-56
2023/03/20 13:24:00;;;;;;;9.73;6.38;;;;;;;20.24;38.55;99366.50;5100966;28;20199;-56
2023/03/20 13:26:43;;;;;;;9.52;6.35;;;;;;;20.31;38.60;99357.22;5100246;28;20199;-55
2023/03/20 13:29:38;;;;;;;7.72;6.78;;;;;;;20.33;38.82;99366.81;5095970;28;20254;-56
2023/03/20 13:32:36;;;;;;;10.07;7.30;;;;;;;20.27;38.72;99355.75;5098618;28;20203;-54
2023/03/20 13:35:27;;;;;;;6.88;6.25;;;;;;;20.28;38.60;99357.44;5098506;28;20202;-54
2023/03/20 13:38:18;;;;;;;7.50;6.50;;;;;;;20.25;38.72;99349.75;5100292;28;20214;-54
2023/03/20 13:41:04;;;;;;;6.30;5.70;;;;;;;20.21;38.26;99336.88;5097639;28;20485;-54
2023/03/20 13:44:10;;;;;;;6.75;5.20;;;;;;;20.40;37.30;99349.66;5092982;28;20191;-53
2023/03/20 13:50:46;;;;;;;6.95;6.22;;;;;;;20.29;39.68;99339.84;5100584;28;20206;-56
2023/03/20 13:53:52;;;;;;;6.72;5.97;;;;;;;20.34;39.15;99339.50;5097135;28;20226;-56
2023/03/20 13:56:36;;;;;;;5.82;4.93;;;;;;;20.34;37.30;99332.44;5096722;28;20742;-56
2023/03/20 13:59:37;;;;;;;5.80;5.30;;;;;;;20.39;37.32;99329.50;5099655;28;20203;-55
2023/03/20 14:05:28;;;;;;;6.55;5.32;;;;;;;20.12;38.29;99319.94;5096446;28;20194;-55
2023/03/20 14:08:25;;;;;;;5.25;4.85;;;;;;;19.99;39.13;99327.03;5097046;28;20226;-56
2023/03/20 14:14:29;;;;;;;8.35;4.60;;;;;;;20.10;37.50;99303.41;5108952;28;20858;-56
2023/03/20 14:17:26;;;;;;;5.25;4.75;;;;;;;20.02;39.93;99302.25;5107901;28;20226;-56
2023/03/20 14:20:24;;;;;;;11.98;5.18;;;;;;;20.04;40.76;99301.22;5109407;28;20297;-56
2023/03/20 14:23:21;;;;;;;5.38;4.90;;;;;;;20.13;40.67;99290.00;5108940;28;20222;-56
2023/03/20 14:26:01;;;;;;;5.32;4.82;;;;;;;20.19;40.56;99294.84;5108348;28;20222;-55
2023/03/20 14:29:01;;;;;;;6.25;5.00;;;;;;;20.15;41.00;99279.38;5094511;28;20435;-56
2023/03/20 14:31:45;;;;;;;5.05;4.65;;;;;;;20.17;40.99;99274.81;5089194;28;20251;-56
2023/03/20 14:34:32;;;;;;;6.63;4.32;;;;;;;20.17;39.96;99275.69;5086650;28;20219;-56
2023/03/20 14:37:07;;;;;;;4.97;4.57;;;;;;;20.08;39.22;99280.78;5088569;28;20349;-55
2023/03/20 14:40:04;;;;;;;5.28;4.82;;;;;;;20.06;38.87;99278.25;5088419;28;20276;-55
2023/03/20 14:43:08;;;;;;;7.65;4.50;;;;;;;20.04;38.73;99274.88;5108447;28;20199;-56
2023/03/20 14:46:21;;;;;;;4.50;4.20;;;;;;;19.98;39.15;99269.22;5109250;28;20576;-56
2023/03/20 14:49:35;;;;;;;4.95;4.55;;;;;;;20.01;39.53;99267.16;5109331;28;20190;-56
2023/03/20 14:53:01;;;;;;;5.35;4.85;;;;;;;20.00;39.38;99256.75;5108400;28;20205;-54
2023/03/20 14:56:38;;;;;;;6.93;4.68;;;;;;;19.98;38.37;99261.31;5109894;28;20636;-54
2023/03/20 15:05:49;;;;;;;;;;;;;;;;;;;;;
2023/03/20 15:15:11;;;;;;;4.38;4.00;;;;;;;19.86;37.98;99255.13;5106464;28;20374;-52
2023/03/20 15:21:27;;;;;;;5.68;5.15;;;;;;;19.78;38.22;99260.91;5105730;28;20305;-53
2023/03/20 15:24:22;;;;;;;19.75;9.02;;;;;;;19.64;38.37;99241.78;5108834;28;20199;-55
2023/03/20 15:30:38;;;;;;;5.72;5.18;;;;;;;19.70;37.94;99257.13;5108730;28;20198;-55
2023/03/20 15:33:42;;;;;;;9.63;7.00;;;;;;;19.70;37.68;99260.59;5108792;28;20199;-55
2023/03/20 15:36:49;;;;;;;15.35;10.00;;;;;;;19.60;37.94;99262.19;5106653;28;20202;-52
2023/03/20 15:40:00;;;;;;;5.85;5.22;;;;;;;19.53;38.05;99255.66;5109005;28;20258;-56
2023/03/20 15:43:02;;;;;;;6.05;4.15;;;;;;;19.41;37.37;99244.16;5109385;28;20201;-55
2023/03/20 15:46:19;;;;;;;8.48;4.90;;;;;;;19.48;37.37;99263.91;5108630;28;20194;-55
2023/03/20 15:49:18;;;;;;;6.55;5.97;;;;;;;19.41;37.92;99262.59;5108949;28;20195;-55
2023/03/20 15:52:20;;;;;;;4.95;4.35;;;;;;;19.38;38.14;99254.06;5105797;28;20201;-55
2023/03/20 15:58:08;;;;;;;7.28;4.82;;;;;;;19.24;38.83;99255.03;5091003;28;20230;-55
2023/03/20 16:04:07;;;;;;;5.95;4.43;;;;;;;19.10;39.37;99265.63;5088123;28;20211;-55
2023/03/20 16:07:01;;;;;;;4.57;4.28;;;;;;;19.05;38.73;99265.97;5092155;28;20303;-53
2023/03/20 16:22:10;;;;;;;9.15;6.85;;;;;;;18.55;41.47;99285.03;5090596;28;20210;-54
2023/03/20 16:24:52;;;;;;;7.55;6.38;;;;;;;18.48;41.73;99278.50;5092580;28;20187;-51
2023/03/20 16:27:34;;;;;;;6.55;5.93;;;;;;;18.41;41.77;99282.47;5091698;28;20210;-53
2023/03/20 16:30:40;;;;;;;14.48;7.65;;;;;;;18.33;42.02;99284.75;5091993;28;20191;-52
2023/03/20 16:34:00;;;;;;;10.25;6.28;;;;;;;18.17;41.97;99291.94;5089761;28;20214;-51
2023/03/20 16:37:01;;;;;;;11.10;7.07;;;;;;;18.11;42.11;99293.16;5091823;28;20199;-53
2023/03/20 16:39:47;;;;;;;11.15;7.20;;;;;;;18.03;42.50;99298.06;5091613;28;20715;-51
2023/03/20 16:42:48;;;;;;;7.60;6.80;;;;;;;17.89;43.04;99296.28;5091939;28;20217;-53
2023/03/20 16:45:49;;;;;;;10.73;7.82;;;;;;;17.79;43.66;99295.16;5090511;28;20199;-53
2023/03/20 16:49:06;;;;;;;9.93;8.57;;;;;;;17.64;44.03;99281.19;5091742;28;20210;-51
2023/03/20 16:54:58;;;;;;;8.77;7.93;;;;;;;17.59;44.74;99299.00;5068917;28;20192;-52
2023/03/20 16:57:58;;;;;;;10.23;8.70;;;;;;;17.53;44.91;99301.13;5064986;28;20276;-52
2023/03/20 17:01:00;;;;;;;12.65;9.50;;;;;;;17.39;45.17;99302.78;5050573;28;20192;-55
2023/03/20 17:04:06;;;;;;;19.10;11.63;;;;;;;17.27;46.13;99303.53;5049577;28;20192;-55
2023/03/20 17:10:18;;;;;;;19.73;11.33;;;;;;;17.15;47.54;99303.44;5047072;28;20222;-56
